createdAt,value
2022-10-04T00:01:54.991Z,26.48
2022-10-04T00:04:52.685Z,30.10
2022-10-04T00:07:27.833Z,25.20
2022-10-04T00:10:23.550Z,25.50
2022-10-04T00:12:59.962Z,28.30
2022-10-04T00:15:38.480Z,37.85
2022-10-04T00:18:18.129Z,28.67
2022-10-04T00:20:54.481Z,23.35
2022-10-04T00:23:27.415Z,20.48
2022-10-04T00:26:00.354Z,24.88
2022-10-04T00:28:43.026Z,23.67
2022-10-04T00:31:28.057Z,26.67
2022-10-04T00:34:17.326Z,17.60
2022-10-04T00:36:54.305Z,22.42
2022-10-04T00:39:35.625Z,19.50
2022-10-04T00:42:19.871Z,23.73
2022-10-04T00:44:57.925Z,19.58
2022-10-04T00:47:46.229Z,24.02
2022-10-04T00:50:31.840Z,26.35
2022-10-04T00:53:08.561Z,18.00
2022-10-04T00:56:04.238Z,23.77
2022-10-04T00:59:09.384Z,18.48
2022-10-04T01:01:40.274Z,18.55
2022-10-04T01:04:38.041Z,17.98
2022-10-04T01:07:10.040Z,17.38
2022-10-04T01:09:49.455Z,21.85
2022-10-04T01:12:45.751Z,16.65
2022-10-04T01:15:27.805Z,15.48
2022-10-04T01:18:30.139Z,16.42
2022-10-04T01:21:18.022Z,20.50
2022-10-04T01:23:55.420Z,24.08
2022-10-04T01:26:31.155Z,15.85
2022-10-04T01:29:03.408Z,14.73
2022-10-04T01:31:35.330Z,19.85
2022-10-04T01:34:06.407Z,17.15
2022-10-04T01:36:38.485Z,17.75
2022-10-04T01:39:08.636Z,20.30
2022-10-04T01:42:02.890Z,22.10
2022-10-04T01:44:45.195Z,17.75
2022-10-04T01:47:44.526Z,17.77
2022-10-04T01:50:24.095Z,16.65
2022-10-04T01:53:20.343Z,20.83
2022-10-04T01:55:58.384Z,17.00
2022-10-04T01:58:33.560Z,24.60
2022-10-04T02:01:27.576Z,17.27
2022-10-04T02:04:06.532Z,30.42
2022-10-04T02:06:42.995Z,30.67
2022-10-04T02:09:19.779Z,29.52
2022-10-04T02:11:54.037Z,32.17
2022-10-04T02:14:31.779Z,31.58
2022-10-04T02:17:11.311Z,27.13
2022-10-04T02:19:43.440Z,30.33
2022-10-04T02:22:15.203Z,36.17
2022-10-04T02:24:47.952Z,79.90
2022-10-04T02:27:17.693Z,78.15
2022-10-04T02:29:46.856Z,55.25
2022-10-04T02:32:34.395Z,32.28
2022-10-04T02:35:05.217Z,25.45
2022-10-04T02:37:35.661Z,31.02
2022-10-04T02:40:13.630Z,19.80
2022-10-04T02:42:51.738Z,19.08
2022-10-04T02:45:30.420Z,22.17
2022-10-04T02:48:06.034Z,22.48
2022-10-04T02:50:54.090Z,25.48
2022-10-04T02:53:44.297Z,24.15
2022-10-04T02:56:18.942Z,27.80
2022-10-04T02:58:49.551Z,27.08
2022-10-04T03:01:28.581Z,26.05
2022-10-04T03:03:59.699Z,23.75
2022-10-04T03:06:33.982Z,20.90
2022-10-04T03:09:12.144Z,21.88
2022-10-04T03:11:44.974Z,22.05
2022-10-04T03:14:27.883Z,22.65
2022-10-04T03:17:05.070Z,22.10
2022-10-04T03:19:42.366Z,25.48
2022-10-04T03:22:14.885Z,24.92
2022-10-04T03:24:54.613Z,23.92
2022-10-04T03:27:27.970Z,23.90
2022-10-04T03:30:00.268Z,25.30
2022-10-04T03:32:31.951Z,27.40
2022-10-04T03:35:08.484Z,23.77
2022-10-04T03:37:39.415Z,23.38
2022-10-04T03:40:11.557Z,26.02
2022-10-04T03:42:43.964Z,25.60
2022-10-04T03:45:18.666Z,28.48
2022-10-04T03:47:51.535Z,28.98
2022-10-04T03:50:30.270Z,28.20
2022-10-04T03:53:05.224Z,28.95
2022-10-04T03:55:41.509Z,26.70
2022-10-04T03:58:14.053Z,29.05
2022-10-04T04:01:02.415Z,29.00
2022-10-04T04:03:39.403Z,25.33
2022-10-04T04:06:16.532Z,25.48
2022-10-04T04:08:52.431Z,26.27
2022-10-04T04:11:27.402Z,25.05
2022-10-04T04:14:26.185Z,26.77
2022-10-04T04:17:27.002Z,26.60
2022-10-04T04:20:07.510Z,26.08
2022-10-04T04:22:40.062Z,28.88
2022-10-04T04:25:16.150Z,24.95
2022-10-04T04:27:49.234Z,27.50
2022-10-04T04:30:20.445Z,25.30
2022-10-04T04:32:57.924Z,25.33
2022-10-04T04:35:35.325Z,27.42
2022-10-04T04:38:20.772Z,30.40
2022-10-04T04:40:50.690Z,25.75
2022-10-04T04:43:21.314Z,32.00
2022-10-04T04:46:03.210Z,39.90
2022-10-04T04:48:46.001Z,59.85
2022-10-04T04:51:25.960Z,74.28
2022-10-04T04:53:56.743Z,58.92
2022-10-04T04:56:29.954Z,47.38
2022-10-04T04:59:04.068Z,35.58
2022-10-04T05:01:44.578Z,32.78
2022-10-04T05:04:13.994Z,30.10
2022-10-04T05:06:50.035Z,30.23
2022-10-04T05:09:25.649Z,36.80
2022-10-04T05:12:00.574Z,33.33
2022-10-04T05:14:32.504Z,34.95
2022-10-04T05:17:02.041Z,41.03
2022-10-04T05:19:37.075Z,33.40
2022-10-04T05:22:20.429Z,32.78
2022-10-04T05:24:55.301Z,36.00
2022-10-04T05:27:39.105Z,30.70
2022-10-04T05:30:23.491Z,29.67
2022-10-04T05:33:03.460Z,35.45
2022-10-04T05:36:03.091Z,29.35
2022-10-04T05:38:47.898Z,28.92
2022-10-04T05:41:35.432Z,27.95
2022-10-04T05:44:21.736Z,28.13
2022-10-04T05:46:52.349Z,30.83
2022-10-04T05:49:23.539Z,31.73
2022-10-04T05:51:57.036Z,33.88
2022-10-04T05:54:35.034Z,26.80
2022-10-04T05:57:35.801Z,27.75
2022-10-04T06:00:16.154Z,32.03
2022-10-04T06:03:22.401Z,28.98
2022-10-04T06:05:56.986Z,31.27
2022-10-04T06:08:36.965Z,29.20
2022-10-04T06:11:13.166Z,26.38
2022-10-04T06:14:08.581Z,28.45
2022-10-04T06:17:21.409Z,27.20
2022-10-04T06:20:24.326Z,30.13
2022-10-04T06:23:01.400Z,27.02
2022-10-04T06:25:39.476Z,30.60
2022-10-04T06:28:25.304Z,24.40
2022-10-04T06:31:29.120Z,31.83
2022-10-04T06:34:10.738Z,25.52
2022-10-04T06:37:03.916Z,21.50
2022-10-04T06:39:51.316Z,23.20
2022-10-04T06:42:34.828Z,26.25
2022-10-04T06:45:19.019Z,24.50
2022-10-04T06:48:09.013Z,25.13
2022-10-04T06:50:51.787Z,23.15
2022-10-04T06:54:19.653Z,27.23
2022-10-04T06:57:19.915Z,27.33
2022-10-04T07:00:10.929Z,21.80
2022-10-04T07:03:01.578Z,23.75
2022-10-04T07:05:37.382Z,27.45
2022-10-04T07:08:31.934Z,22.70
2022-10-04T07:11:31.113Z,22.88
2022-10-04T07:14:17.147Z,27.25
2022-10-04T07:16:57.676Z,24.05
2022-10-04T07:19:49.606Z,23.77
2022-10-04T07:22:23.608Z,25.67
2022-10-04T07:24:58.675Z,24.38
2022-10-04T07:28:12.917Z,25.88
2022-10-04T07:31:10.701Z,26.80
2022-10-04T07:33:51.481Z,27.73
2022-10-04T07:36:49.973Z,31.48
2022-10-04T07:39:22.602Z,25.35
2022-10-04T07:41:56.774Z,30.70
2022-10-04T07:44:42.012Z,25.65
2022-10-04T07:47:32.737Z,27.35
2022-10-04T07:50:15.419Z,30.67
2022-10-04T07:53:11.779Z,29.58
2022-10-04T07:55:55.378Z,32.40
2022-10-04T07:58:54.946Z,29.23
2022-10-04T08:01:32.305Z,31.42
2022-10-04T08:04:21.486Z,28.45
2022-10-04T08:06:57.295Z,30.52
2022-10-04T08:09:44.395Z,27.48
2022-10-04T08:15:16.671Z,29.40
2022-10-04T08:18:07.260Z,37.47
2022-10-04T08:20:51.346Z,31.90
2022-10-04T08:24:04.687Z,33.67
2022-10-04T08:27:10.852Z,31.30
2022-10-04T08:29:59.573Z,32.53
2022-10-04T08:32:51.895Z,28.27
2022-10-04T08:35:34.715Z,28.23
2022-10-04T08:38:28.001Z,29.65
2022-10-04T08:41:02.759Z,32.47
2022-10-04T08:44:06.478Z,28.85
2022-10-04T08:47:00.315Z,26.20
2022-10-04T08:49:35.415Z,30.60
2022-10-04T08:52:26.072Z,27.50
2022-10-04T08:55:22.748Z,26.45
2022-10-04T08:58:00.798Z,39.37
2022-10-04T09:00:50.799Z,25.95
2022-10-04T09:04:02.374Z,31.80
2022-10-04T09:06:34.151Z,29.40
2022-10-04T09:09:52.202Z,32.80
2022-10-04T09:12:53.305Z,30.70
2022-10-04T09:15:27.307Z,29.88
2022-10-04T09:18:14.811Z,28.92
2022-10-04T09:20:55.706Z,28.52
2022-10-04T09:23:45.689Z,28.35
2022-10-04T09:26:39.493Z,27.17
2022-10-04T09:29:27.558Z,36.13
2022-10-04T09:32:16.078Z,31.05
2022-10-04T09:35:07.270Z,26.75
2022-10-04T09:37:45.459Z,29.05
2022-10-04T09:40:37.412Z,28.20
2022-10-04T09:43:41.938Z,30.63
2022-10-04T09:46:32.617Z,31.00
2022-10-04T09:49:14.462Z,28.92
2022-10-04T09:52:20.098Z,26.70
2022-10-04T09:54:57.936Z,31.02
2022-10-04T09:57:45.500Z,29.65
2022-10-04T10:00:40.416Z,26.48
2022-10-04T10:03:31.324Z,23.73
2022-10-04T10:06:19.312Z,30.83
2022-10-04T10:09:04.653Z,28.98
2022-10-04T10:12:31.655Z,27.85
2022-10-04T10:15:40.591Z,31.83
2022-10-04T10:18:28.680Z,23.50
2022-10-04T10:21:25.690Z,25.08
2022-10-04T10:24:15.812Z,24.88
2022-10-04T10:27:03.073Z,30.40
2022-10-04T10:30:07.553Z,25.55
2022-10-04T10:32:55.366Z,24.40
2022-10-04T10:36:05.679Z,24.40
2022-10-04T10:39:10.605Z,26.98
2022-10-04T10:41:39.669Z,28.00
2022-10-04T10:44:34.243Z,27.08
2022-10-04T10:47:41.673Z,27.25
2022-10-04T10:50:59.346Z,27.92
2022-10-04T10:53:49.730Z,31.63
2022-10-04T10:56:45.060Z,27.17
2022-10-04T10:59:51.678Z,25.02
2022-10-04T11:02:50.378Z,25.08
2022-10-04T11:05:35.328Z,31.60
2022-10-04T11:08:28.555Z,27.40
2022-10-04T11:11:33.086Z,25.92
2022-10-04T11:14:48.401Z,26.20
2022-10-04T11:17:38.072Z,27.15
2022-10-04T11:20:44.289Z,24.00
2022-10-04T11:23:52.799Z,28.38
2022-10-04T11:26:49.449Z,25.33
2022-10-04T11:29:30.453Z,23.83
2022-10-04T11:32:02.828Z,25.77
2022-10-04T11:34:47.247Z,29.80
2022-10-04T11:37:22.549Z,22.50
2022-10-04T11:40:02.945Z,26.42
2022-10-04T11:42:52.363Z,24.67
2022-10-04T11:45:48.543Z,26.98
2022-10-04T11:48:49.706Z,23.17
2022-10-04T11:51:27.014Z,26.13
2022-10-04T11:54:29.510Z,28.08
2022-10-04T11:57:20.439Z,23.40
2022-10-04T12:00:21.230Z,21.10
2022-10-04T12:03:28.744Z,23.67
2022-10-04T12:06:23.675Z,25.23
2022-10-04T12:09:06.706Z,26.48
2022-10-04T12:12:08.740Z,20.63
2022-10-04T12:14:48.086Z,21.13
2022-10-04T12:17:53.962Z,25.90
2022-10-04T12:20:45.363Z,23.55
2022-10-04T12:23:23.977Z,20.98
2022-10-04T12:26:08.198Z,24.10
2022-10-04T12:29:03.431Z,25.60
2022-10-04T12:31:43.029Z,28.05
2022-10-04T12:34:18.089Z,22.15
2022-10-04T12:37:07.675Z,21.80
2022-10-04T12:39:49.015Z,19.88
2022-10-04T12:42:36.151Z,24.60
2022-10-04T12:47:58.249Z,22.38
2022-10-04T12:50:27.318Z,25.10
2022-10-04T12:53:03.773Z,29.90
2022-10-04T12:55:53.792Z,26.23
2022-10-04T12:58:46.119Z,26.67
2022-10-04T13:01:30.992Z,25.50
2022-10-04T13:04:23.796Z,28.48
2022-10-04T13:07:27.154Z,24.48
2022-10-04T13:10:30.169Z,26.83
2022-10-04T13:13:27.111Z,31.13
2022-10-04T13:19:17.834Z,25.92
2022-10-04T13:22:08.265Z,26.35
2022-10-04T13:24:56.090Z,26.48
2022-10-04T13:27:44.791Z,28.88
2022-10-04T13:30:28.574Z,28.55
2022-10-04T13:33:37.432Z,29.55
2022-10-04T13:36:07.001Z,35.30
2022-10-04T13:38:55.421Z,33.05
2022-10-04T13:42:01.707Z,40.58
2022-10-04T13:44:57.537Z,31.98
2022-10-04T13:47:32.819Z,37.15
2022-10-04T13:50:28.112Z,33.13
2022-10-04T13:53:34.799Z,37.50
2022-10-04T13:56:42.885Z,35.38
2022-10-04T13:59:35.103Z,31.17
2022-10-04T14:02:32.214Z,37.60
2022-10-04T14:05:23.524Z,36.83
2022-10-04T14:08:20.297Z,34.35
2022-10-04T14:11:14.444Z,32.67
2022-10-04T14:13:54.375Z,34.70
2022-10-04T14:16:50.522Z,33.83
2022-10-04T14:19:43.967Z,34.03
2022-10-04T14:22:37.264Z,31.92
2022-10-04T14:25:24.370Z,33.80
2022-10-04T14:28:15.515Z,37.83
2022-10-04T14:31:03.292Z,31.17
2022-10-04T14:34:20.101Z,34.15
2022-10-04T14:37:07.672Z,32.72
2022-10-04T14:39:58.568Z,36.92
2022-10-04T14:42:57.195Z,31.73
2022-10-04T14:45:34.269Z,33.85
2022-10-04T14:48:39.708Z,36.00
2022-10-04T14:51:47.618Z,40.88
2022-10-04T14:54:41.060Z,43.88
2022-10-04T14:57:25.166Z,37.97
2022-10-04T15:00:07.591Z,39.80
2022-10-04T15:03:14.286Z,37.33
2022-10-04T15:06:01.129Z,37.13
2022-10-04T15:08:59.629Z,41.42
2022-10-04T15:11:44.327Z,40.65
2022-10-04T15:14:43.152Z,39.80
2022-10-04T15:17:27.734Z,37.42
2022-10-04T15:20:03.764Z,31.73
2022-10-04T15:22:46.012Z,43.97
2022-10-04T15:25:40.512Z,34.38
2022-10-04T15:28:28.118Z,35.08
2022-10-04T15:31:14.723Z,37.67
2022-10-04T15:34:25.360Z,35.50
2022-10-04T15:37:24.015Z,31.73
2022-10-04T15:40:20.480Z,29.30
2022-10-04T15:43:21.634Z,29.27
2022-10-04T15:46:11.067Z,28.25
2022-10-04T15:49:10.768Z,30.08
2022-10-04T15:52:27.214Z,27.15
2022-10-04T15:55:21.550Z,31.13
2022-10-04T15:58:22.272Z,25.98
2022-10-04T16:01:21.427Z,30.83
2022-10-04T16:04:41.542Z,28.85
2022-10-04T16:07:24.950Z,28.08
2022-10-04T16:10:19.665Z,26.25
2022-10-04T16:12:49.404Z,25.30
2022-10-04T16:15:22.301Z,28.50
2022-10-04T16:17:59.615Z,24.38
2022-10-04T16:20:49.192Z,23.90
2022-10-04T16:23:38.163Z,23.08
2022-10-04T16:26:11.604Z,24.55
2022-10-04T16:28:44.804Z,21.70
2022-10-04T16:31:46.400Z,20.83
2022-10-04T16:34:30.001Z,21.88
2022-10-04T16:37:06.040Z,25.27
2022-10-04T16:40:09.645Z,21.60
2022-10-04T16:43:05.845Z,25.45
2022-10-04T16:46:01.646Z,21.70
2022-10-04T16:48:43.001Z,25.48
2022-10-04T16:51:24.010Z,25.13
2022-10-04T16:54:11.174Z,25.83
2022-10-04T16:59:39.630Z,27.90
2022-10-04T17:02:36.110Z,23.23
2022-10-04T17:05:08.625Z,23.58
2022-10-04T17:08:10.708Z,21.60
2022-10-04T17:10:54.924Z,22.92
2022-10-04T17:13:55.558Z,25.85
2022-10-04T17:16:51.409Z,24.73
2022-10-04T17:19:54.124Z,30.75
2022-10-04T17:22:35.368Z,22.75
2022-10-04T17:25:19.929Z,20.42
2022-10-04T17:27:57.217Z,22.20
2022-10-04T17:30:31.212Z,21.52
2022-10-04T17:33:39.479Z,22.58
2022-10-04T17:39:34.073Z,20.88
2022-10-04T17:42:24.267Z,16.45
2022-10-04T17:45:14.229Z,20.15
2022-10-04T17:48:34.578Z,20.27
2022-10-04T17:51:42.234Z,19.02
2022-10-04T17:54:34.746Z,21.90
2022-10-04T17:57:06.862Z,18.02
2022-10-04T17:59:53.828Z,18.50
2022-10-04T18:05:00.890Z,19.73
2022-10-04T18:07:40.297Z,19.30
2022-10-04T18:10:34.757Z,19.88
2022-10-04T18:13:26.489Z,21.35
2022-10-04T18:16:23.324Z,25.65
2022-10-04T18:18:52.534Z,34.88
2022-10-04T18:21:32.652Z,26.23
2022-10-04T18:24:20.427Z,22.20
2022-10-04T18:27:06.626Z,24.48
2022-10-04T18:29:40.173Z,22.87
2022-10-04T18:32:27.979Z,23.92
2022-10-04T18:35:03.618Z,22.70
2022-10-04T18:37:39.651Z,22.20
2022-10-04T18:40:22.579Z,21.10
2022-10-04T18:43:02.639Z,30.52
2022-10-04T18:45:36.110Z,24.95
2022-10-04T18:48:16.603Z,28.05
2022-10-04T18:50:49.285Z,25.25
2022-10-04T18:53:45.725Z,26.33
2022-10-04T18:56:16.329Z,33.03
2022-10-04T18:59:25.372Z,34.50
2022-10-04T19:02:26.416Z,25.08
2022-10-04T19:05:18.210Z,27.35
2022-10-04T19:08:16.619Z,29.45
2022-10-04T19:11:04.157Z,27.17
2022-10-04T19:13:48.701Z,28.55
2022-10-04T19:16:45.403Z,32.97
2022-10-04T19:19:40.647Z,25.77
2022-10-04T19:22:24.600Z,26.55
2022-10-04T19:25:06.613Z,31.67
2022-10-04T19:27:41.537Z,31.42
2022-10-04T19:30:20.922Z,29.67
2022-10-04T19:33:12.551Z,31.05
2022-10-04T19:35:44.284Z,32.17
2022-10-04T19:38:31.220Z,31.02
2022-10-04T19:41:19.923Z,26.23
2022-10-04T19:43:49.110Z,28.10
2022-10-04T19:46:30.715Z,28.13
2022-10-04T19:49:00.154Z,24.88
2022-10-04T19:51:37.297Z,30.35
2022-10-04T19:54:16.651Z,29.45
2022-10-04T19:56:49.472Z,21.33
2022-10-04T19:59:49.337Z,27.42
2022-10-04T20:02:19.198Z,30.38
2022-10-04T20:04:49.854Z,26.00
2022-10-04T20:07:28.395Z,27.00
2022-10-04T20:10:24.343Z,31.15
2022-10-04T20:13:09.625Z,29.08
2022-10-04T20:15:38.761Z,33.80
2022-10-04T20:18:33.686Z,29.10
2022-10-04T20:21:04.501Z,25.98
2022-10-04T20:36:47.894Z,24.88
2022-10-04T20:39:42.559Z,27.48
2022-10-04T20:42:29.701Z,26.52
2022-10-04T20:45:00.259Z,27.70
2022-10-04T20:47:40.861Z,27.27
2022-10-04T20:50:30.445Z,25.65
2022-10-04T20:53:07.602Z,26.35
2022-10-04T20:55:39.853Z,26.30
2022-10-04T20:58:33.139Z,25.13
2022-10-04T21:01:38.034Z,25.48
2022-10-04T21:04:47.492Z,25.02
2022-10-04T21:07:22.756Z,26.90
2022-10-04T21:09:54.199Z,26.63
2022-10-04T21:12:39.785Z,26.60
2022-10-04T21:15:21.854Z,27.48
2022-10-04T21:18:06.015Z,24.80
2022-10-04T21:20:46.138Z,26.33
2022-10-04T21:23:21.920Z,25.83
2022-10-04T21:25:51.714Z,22.00
2022-10-04T21:28:36.707Z,26.52
2022-10-04T21:31:06.180Z,26.10
2022-10-04T21:33:36.410Z,22.92
2022-10-04T21:36:06.611Z,22.23
2022-10-04T21:38:35.997Z,29.00
2022-10-04T21:41:05.679Z,23.00
2022-10-04T21:43:35.262Z,22.17
2022-10-04T21:46:04.516Z,21.10
2022-10-04T21:48:33.559Z,24.42
2022-10-04T21:51:02.683Z,21.67
2022-10-04T21:53:31.756Z,19.58
2022-10-04T21:56:00.900Z,21.17
2022-10-04T21:58:30.244Z,26.20
2022-10-04T22:00:59.483Z,21.23
2022-10-04T22:03:29.573Z,20.55
2022-10-04T22:05:58.706Z,23.00
2022-10-04T22:08:28.311Z,26.30
2022-10-04T22:10:57.916Z,27.75
2022-10-04T22:13:27.819Z,27.52
2022-10-04T22:15:56.859Z,29.65
2022-10-04T22:18:26.047Z,22.63
2022-10-04T22:20:55.079Z,25.60
2022-10-04T22:23:26.675Z,21.25
2022-10-04T22:25:56.681Z,27.23
2022-10-04T22:28:31.288Z,24.55
2022-10-04T22:31:00.567Z,32.10
2022-10-04T22:33:36.943Z,25.73
2022-10-04T22:36:21.258Z,22.88
2022-10-04T22:39:05.121Z,24.42
2022-10-04T22:41:37.354Z,25.00
2022-10-04T22:44:26.372Z,20.17
2022-10-04T22:47:01.290Z,26.52
2022-10-04T22:49:33.660Z,27.40
2022-10-04T22:52:07.539Z,27.42
2022-10-04T22:54:37.400Z,21.35
2022-10-04T22:57:06.639Z,34.95
2022-10-04T22:59:41.980Z,32.42
2022-10-04T23:02:31.629Z,28.13
2022-10-04T23:05:23.261Z,22.95
2022-10-04T23:07:58.846Z,23.77
2022-10-04T23:10:28.504Z,26.55
2022-10-04T23:12:58.331Z,25.65
2022-10-04T23:15:30.639Z,29.55
2022-10-04T23:18:00.091Z,29.45
2022-10-04T23:20:30.817Z,25.52
2022-10-04T23:23:01.176Z,29.60
2022-10-04T23:25:31.261Z,33.92
2022-10-04T23:28:04.248Z,27.38
2022-10-04T23:30:33.439Z,23.30
2022-10-04T23:33:03.364Z,23.90
2022-10-04T23:35:34.760Z,26.98
2022-10-04T23:38:07.907Z,34.63
2022-10-04T23:40:37.234Z,22.88
2022-10-04T23:43:07.315Z,21.65
2022-10-04T23:45:42.574Z,29.75
2022-10-04T23:48:17.797Z,21.73
2022-10-04T23:50:47.360Z,22.45
2022-10-04T23:53:29.203Z,23.08
2022-10-04T23:56:03.026Z,24.45
2022-10-04T23:58:38.904Z,30.05
